sensor_id;sensor_type;location;lat;lon;timestamp;temperature;humidity
39957;DHT22;48483;44.640;7.494;2024-01-15T00:00:06;3.40;99.90
39957;DHT22;48483;44.640;7.494;2024-01-15T00:02:37;3.40;99.90
39957;DHT22;48483;44.640;7.494;2024-01-15T00:05:05;3.30;99.90
39957;DHT22;48483;44.640;7.494;2024-01-15T00:07:32;3.30;99.90
39957;DHT22;48483;44.640;7.494;2024-01-15T00:09:59;3.30;99.90
39957;DHT22;48483;44.640;7.494;2024-01-15T00:12:25;3.30;99.90
39957;DHT22;48483;44.640;7.494;2024-01-15T00:14:52;3.30;99.90
39957;DHT22;48483;44.640;7.494;2024-01-15T00:17:18;3.30;99.90
39957;DHT22;48483;44.640;7.494;2024-01-15T00:19:45;3.30;99.90
39957;DHT22;48483;44.640;7.494;2024-01-15T00:22:13;3.30;99.90
39957;DHT22;48483;44.640;7.494;2024-01-15T00:24:40;3.40;99.90
39957;DHT22;48483;44.640;7.494;2024-01-15T00:27:06;3.40;99.90
39957;DHT22;48483;44.640;7.494;2024-01-15T00:29:33;3.30;99.90
39957;DHT22;48483;44.640;7.494;2024-01-15T00:31:59;3.40;99.90
39957;DHT22;48483;44.640;7.494;2024-01-15T00:34:26;3.40;99.90
39957;DHT22;48483;44.640;7.494;2024-01-15T00:36:53;3.50;99.90
39957;DHT22;48483;44.640;7.494;2024-01-15T00:39:21;3.40;99.90
39957;DHT22;48483;44.640;7.494;2024-01-15T00:41:48;3.40;99.90
39957;DHT22;48483;44.640;7.494;2024-01-15T00:44:14;3.40;99.90
39957;DHT22;48483;44.640;7.494;2024-01-15T00:46:43;3.30;99.90
39957;DHT22;48483;44.640;7.494;2024-01-15T00:49:10;3.20;99.90
39957;DHT22;48483;44.640;7.494;2024-01-15T00:51:37;3.20;99.90
39957;DHT22;48483;44.640;7.494;2024-01-15T00:54:04;3.20;99.90
39957;DHT22;48483;44.640;7.494;2024-01-15T00:56:32;3.20;99.90
39957;DHT22;48483;44.640;7.494;2024-01-15T00:59:00;3.20;99.90
39957;DHT22;48483;44.640;7.494;2024-01-15T01:01:27;3.00;99.90
39957;DHT22;48483;44.640;7.494;2024-01-15T01:03:53;3.00;99.90
39957;DHT22;48483;44.640;7.494;2024-01-15T01:06:20;3.00;99.90
39957;DHT22;48483;44.640;7.494;2024-01-15T01:08:47;3.00;99.90
39957;DHT22;48483;44.640;7.494;2024-01-15T01:11:13;3.00;99.90
39957;DHT22;48483;44.640;7.494;2024-01-15T01:13:41;3.00;99.90
39957;DHT22;48483;44.640;7.494;2024-01-15T01:16:08;2.90;99.90
39957;DHT22;48483;44.640;7.494;2024-01-15T01:18:34;3.00;99.90
39957;DHT22;48483;44.640;7.494;2024-01-15T01:21:01;3.00;99.90
39957;DHT22;48483;44.640;7.494;2024-01-15T01:23:29;2.90;99.90
39957;DHT22;48483;44.640;7.494;2024-01-15T01:25:55;2.90;99.90
39957;DHT22;48483;44.640;7.494;2024-01-15T01:28:22;2.90;99.90
39957;DHT22;48483;44.640;7.494;2024-01-15T01:30:50;2.90;99.90
39957;DHT22;48483;44.640;7.494;2024-01-15T01:33:17;3.00;99.90
39957;DHT22;48483;44.640;7.494;2024-01-15T01:35:43;3.00;99.90
39957;DHT22;48483;44.640;7.494;2024-01-15T01:38:11;2.90;99.90
39957;DHT22;48483;44.640;7.494;2024-01-15T01:40:38;3.00;99.90
39957;DHT22;48483;44.640;7.494;2024-01-15T01:43:05;2.90;99.90
39957;DHT22;48483;44.640;7.494;2024-01-15T01:45:31;2.90;99.90
39957;DHT22;48483;44.640;7.494;2024-01-15T01:48:00;3.00;99.90
39957;DHT22;48483;44.640;7.494;2024-01-15T01:50:27;3.00;99.90
39957;DHT22;48483;44.640;7.494;2024-01-15T01:52:55;3.00;99.90
39957;DHT22;48483;44.640;7.494;2024-01-15T01:55:24;3.00;99.90
39957;DHT22;48483;44.640;7.494;2024-01-15T01:57:52;3.00;99.90
39957;DHT22;48483;44.640;7.494;2024-01-15T02:00:19;3.00;99.90
39957;DHT22;48483;44.640;7.494;2024-01-15T02:02:46;3.00;99.90
39957;DHT22;48483;44.640;7.494;2024-01-15T02:05:18;3.00;99.90
39957;DHT22;48483;44.640;7.494;2024-01-15T02:07:45;3.00;99.90
39957;DHT22;48483;44.640;7.494;2024-01-15T02:10:12;2.90;99.90
39957;DHT22;48483;44.640;7.494;2024-01-15T02:12:39;2.80;99.90
39957;DHT22;48483;44.640;7.494;2024-01-15T02:15:06;2.80;99.90
39957;DHT22;48483;44.640;7.494;2024-01-15T02:17:33;2.80;99.90
39957;DHT22;48483;44.640;7.494;2024-01-15T02:20:00;2.80;99.90
39957;DHT22;48483;44.640;7.494;2024-01-15T02:22:28;2.80;99.90
39957;DHT22;48483;44.640;7.494;2024-01-15T02:24:56;2.80;99.90
39957;DHT22;48483;44.640;7.494;2024-01-15T02:27:22;2.80;99.90
39957;DHT22;48483;44.640;7.494;2024-01-15T02:29:49;2.80;99.90
39957;DHT22;48483;44.640;7.494;2024-01-15T02:32:17;2.80;99.90
39957;DHT22;48483;44.640;7.494;2024-01-15T02:34:43;2.80;99.90
39957;DHT22;48483;44.640;7.494;2024-01-15T02:37:10;2.90;99.90
39957;DHT22;48483;44.640;7.494;2024-01-15T02:39:36;2.80;99.90
39957;DHT22;48483;44.640;7.494;2024-01-15T02:42:05;2.80;99.90
39957;DHT22;48483;44.640;7.494;2024-01-15T02:44:32;2.80;99.90
39957;DHT22;48483;44.640;7.494;2024-01-15T02:46:58;2.80;99.90
39957;DHT22;48483;44.640;7.494;2024-01-15T02:49:25;2.80;99.90
39957;DHT22;48483;44.640;7.494;2024-01-15T02:51:51;2.80;99.90
39957;DHT22;48483;44.640;7.494;2024-01-15T02:54:18;2.80;99.90
39957;DHT22;48483;44.640;7.494;2024-01-15T02:56:44;2.80;99.90
39957;DHT22;48483;44.640;7.494;2024-01-15T02:59:12;2.80;99.90
39957;DHT22;48483;44.640;7.494;2024-01-15T03:01:39;2.70;99.90
39957;DHT22;48483;44.640;7.494;2024-01-15T03:04:06;2.70;99.90
39957;DHT22;48483;44.640;7.494;2024-01-15T03:06:32;2.60;99.90
39957;DHT22;48483;44.640;7.494;2024-01-15T03:08:59;2.70;99.90
39957;DHT22;48483;44.640;7.494;2024-01-15T03:11:26;2.70;99.90
39957;DHT22;48483;44.640;7.494;2024-01-15T03:13:52;2.60;99.90
39957;DHT22;48483;44.640;7.494;2024-01-15T03:16:20;2.60;99.90
39957;DHT22;48483;44.640;7.494;2024-01-15T03:18:47;2.60;99.90
39957;DHT22;48483;44.640;7.494;2024-01-15T03:21:13;2.60;99.90
39957;DHT22;48483;44.640;7.494;2024-01-15T03:23:40;2.60;99.90
39957;DHT22;48483;44.640;7.494;2024-01-15T03:26:06;2.60;99.90
39957;DHT22;48483;44.640;7.494;2024-01-15T03:28:33;2.50;99.90
39957;DHT22;48483;44.640;7.494;2024-01-15T03:30:59;2.50;99.90
39957;DHT22;48483;44.640;7.494;2024-01-15T03:33:27;2.50;99.90
39957;DHT22;48483;44.640;7.494;2024-01-15T03:35:54;2.50;99.90
39957;DHT22;48483;44.640;7.494;2024-01-15T03:38:20;2.50;99.90
39957;DHT22;48483;44.640;7.494;2024-01-15T03:40:47;2.50;99.90
39957;DHT22;48483;44.640;7.494;2024-01-15T03:43:14;2.50;99.90
39957;DHT22;48483;44.640;7.494;2024-01-15T03:45:40;2.60;99.90
39957;DHT22;48483;44.640;7.494;2024-01-15T03:48:07;2.60;99.90
39957;DHT22;48483;44.640;7.494;2024-01-15T03:50:35;2.60;99.90
39957;DHT22;48483;44.640;7.494;2024-01-15T03:53:02;2.70;99.90
39957;DHT22;48483;44.640;7.494;2024-01-15T03:55:28;2.70;99.90
39957;DHT22;48483;44.640;7.494;2024-01-15T03:57:55;2.80;99.90
39957;DHT22;48483;44.640;7.494;2024-01-15T04:00:22;2.90;99.90
39957;DHT22;48483;44.640;7.494;2024-01-15T04:02:48;2.90;99.90
39957;DHT22;48483;44.640;7.494;2024-01-15T04:05:15;3.00;99.90
39957;DHT22;48483;44.640;7.494;2024-01-15T04:07:43;3.00;99.90
39957;DHT22;48483;44.640;7.494;2024-01-15T04:10:09;2.90;99.90
39957;DHT22;48483;44.640;7.494;2024-01-15T04:12:36;2.80;99.90
39957;DHT22;48483;44.640;7.494;2024-01-15T04:15:03;2.80;99.90
39957;DHT22;48483;44.640;7.494;2024-01-15T04:17:30;2.80;99.90
39957;DHT22;48483;44.640;7.494;2024-01-15T04:19:57;2.80;99.90
39957;DHT22;48483;44.640;7.494;2024-01-15T04:22:24;2.70;99.90
39957;DHT22;48483;44.640;7.494;2024-01-15T04:24:53;2.70;99.90
39957;DHT22;48483;44.640;7.494;2024-01-15T04:27:19;2.70;99.90
39957;DHT22;48483;44.640;7.494;2024-01-15T04:29:46;2.80;99.90
39957;DHT22;48483;44.640;7.494;2024-01-15T04:32:12;2.80;99.90
39957;DHT22;48483;44.640;7.494;2024-01-15T04:34:39;2.80;99.90
39957;DHT22;48483;44.640;7.494;2024-01-15T04:37:06;2.80;99.90
39957;DHT22;48483;44.640;7.494;2024-01-15T04:39:32;2.80;99.90
39957;DHT22;48483;44.640;7.494;2024-01-15T04:42:00;2.80;99.90
39957;DHT22;48483;44.640;7.494;2024-01-15T04:44:27;2.70;99.90
39957;DHT22;48483;44.640;7.494;2024-01-15T04:46:54;2.70;99.90
39957;DHT22;48483;44.640;7.494;2024-01-15T04:49:21;2.70;99.90
39957;DHT22;48483;44.640;7.494;2024-01-15T04:51:47;2.70;99.90
39957;DHT22;48483;44.640;7.494;2024-01-15T04:54:14;2.60;99.90
39957;DHT22;48483;44.640;7.494;2024-01-15T04:56:44;2.60;99.90
39957;DHT22;48483;44.640;7.494;2024-01-15T04:59:13;2.50;99.90
39957;DHT22;48483;44.640;7.494;2024-01-15T05:01:41;2.50;99.90
39957;DHT22;48483;44.640;7.494;2024-01-15T05:04:07;2.50;99.90
39957;DHT22;48483;44.640;7.494;2024-01-15T05:06:34;2.50;99.90
39957;DHT22;48483;44.640;7.494;2024-01-15T05:09:00;2.60;99.90
39957;DHT22;48483;44.640;7.494;2024-01-15T05:11:27;2.70;99.90
39957;DHT22;48483;44.640;7.494;2024-01-15T05:13:53;2.70;99.90
39957;DHT22;48483;44.640;7.494;2024-01-15T05:16:21;2.70;99.90
39957;DHT22;48483;44.640;7.494;2024-01-15T05:18:48;2.70;99.90
39957;DHT22;48483;44.640;7.494;2024-01-15T05:21:15;2.80;99.90
39957;DHT22;48483;44.640;7.494;2024-01-15T05:23:41;2.80;99.90
39957;DHT22;48483;44.640;7.494;2024-01-15T05:26:08;2.80;99.90
39957;DHT22;48483;44.640;7.494;2024-01-15T05:28:35;2.90;99.90
39957;DHT22;48483;44.640;7.494;2024-01-15T05:31:02;2.90;99.90
39957;DHT22;48483;44.640;7.494;2024-01-15T05:33:30;3.00;99.90
39957;DHT22;48483;44.640;7.494;2024-01-15T05:35:57;3.00;99.90
39957;DHT22;48483;44.640;7.494;2024-01-15T05:38:25;3.10;99.90
39957;DHT22;48483;44.640;7.494;2024-01-15T05:40:51;3.10;99.90
39957;DHT22;48483;44.640;7.494;2024-01-15T05:43:18;3.10;99.90
39957;DHT22;48483;44.640;7.494;2024-01-15T05:45:45;3.10;99.90
39957;DHT22;48483;44.640;7.494;2024-01-15T05:48:11;3.00;99.90
39957;DHT22;48483;44.640;7.494;2024-01-15T05:50:40;2.90;99.90
39957;DHT22;48483;44.640;7.494;2024-01-15T05:53:06;2.90;99.90
39957;DHT22;48483;44.640;7.494;2024-01-15T05:55:33;2.80;99.90
39957;DHT22;48483;44.640;7.494;2024-01-15T05:58:00;2.70;99.90
39957;DHT22;48483;44.640;7.494;2024-01-15T06:00:26;2.70;99.90
39957;DHT22;48483;44.640;7.494;2024-01-15T06:02:53;2.60;99.90
39957;DHT22;48483;44.640;7.494;2024-01-15T06:05:19;2.50;99.90
39957;DHT22;48483;44.640;7.494;2024-01-15T06:07:47;2.40;99.90
39957;DHT22;48483;44.640;7.494;2024-01-15T06:10:14;2.30;99.90
39957;DHT22;48483;44.640;7.494;2024-01-15T06:12:42;2.40;99.90
39957;DHT22;48483;44.640;7.494;2024-01-15T06:15:09;2.40;99.90
39957;DHT22;48483;44.640;7.494;2024-01-15T06:17:36;2.40;99.90
39957;DHT22;48483;44.640;7.494;2024-01-15T06:20:04;2.40;99.90
39957;DHT22;48483;44.640;7.494;2024-01-15T06:22:31;2.40;99.90
39957;DHT22;48483;44.640;7.494;2024-01-15T06:24:59;2.50;99.90
39957;DHT22;48483;44.640;7.494;2024-01-15T06:27:26;2.60;99.90
39957;DHT22;48483;44.640;7.494;2024-01-15T06:29:52;2.70;99.90
39957;DHT22;48483;44.640;7.494;2024-01-15T06:32:19;2.70;99.90
39957;DHT22;48483;44.640;7.494;2024-01-15T06:34:46;2.80;99.90
39957;DHT22;48483;44.640;7.494;2024-01-15T06:37:12;2.80;99.90
39957;DHT22;48483;44.640;7.494;2024-01-15T06:39:39;2.80;99.90
39957;DHT22;48483;44.640;7.494;2024-01-15T06:42:07;2.80;99.90
39957;DHT22;48483;44.640;7.494;2024-01-15T06:44:33;2.80;99.90
39957;DHT22;48483;44.640;7.494;2024-01-15T06:47:01;2.80;99.90
39957;DHT22;48483;44.640;7.494;2024-01-15T06:49:28;2.70;99.90
39957;DHT22;48483;44.640;7.494;2024-01-15T06:51:55;2.60;99.90
39957;DHT22;48483;44.640;7.494;2024-01-15T06:54:22;2.60;99.90
39957;DHT22;48483;44.640;7.494;2024-01-15T06:56:50;2.60;99.90
39957;DHT22;48483;44.640;7.494;2024-01-15T06:59:18;2.60;99.90
39957;DHT22;48483;44.640;7.494;2024-01-15T07:01:44;2.70;99.90
39957;DHT22;48483;44.640;7.494;2024-01-15T07:04:11;2.70;99.90
39957;DHT22;48483;44.640;7.494;2024-01-15T07:06:38;2.70;99.90
39957;DHT22;48483;44.640;7.494;2024-01-15T07:09:05;2.70;99.90
39957;DHT22;48483;44.640;7.494;2024-01-15T07:11:32;2.60;99.90
39957;DHT22;48483;44.640;7.494;2024-01-15T07:13:59;2.60;99.90
39957;DHT22;48483;44.640;7.494;2024-01-15T07:16:27;2.60;99.90
39957;DHT22;48483;44.640;7.494;2024-01-15T07:18:53;2.60;99.90
39957;DHT22;48483;44.640;7.494;2024-01-15T07:21:21;2.50;99.90
39957;DHT22;48483;44.640;7.494;2024-01-15T07:23:47;2.50;99.90
39957;DHT22;48483;44.640;7.494;2024-01-15T07:26:14;2.50;99.90
39957;DHT22;48483;44.640;7.494;2024-01-15T07:28:41;2.50;99.90
39957;DHT22;48483;44.640;7.494;2024-01-15T07:31:08;2.60;99.90
39957;DHT22;48483;44.640;7.494;2024-01-15T07:33:36;2.60;99.90
39957;DHT22;48483;44.640;7.494;2024-01-15T07:36:03;2.70;99.90
39957;DHT22;48483;44.640;7.494;2024-01-15T07:38:30;2.70;99.90
39957;DHT22;48483;44.640;7.494;2024-01-15T07:40:57;2.70;99.90
39957;DHT22;48483;44.640;7.494;2024-01-15T07:43:23;2.80;99.90
39957;DHT22;48483;44.640;7.494;2024-01-15T07:45:50;2.90;99.90
39957;DHT22;48483;44.640;7.494;2024-01-15T07:48:16;3.00;99.90
39957;DHT22;48483;44.640;7.494;2024-01-15T07:50:44;3.10;99.90
39957;DHT22;48483;44.640;7.494;2024-01-15T07:53:12;3.20;99.90
39957;DHT22;48483;44.640;7.494;2024-01-15T07:55:38;3.30;99.90
39957;DHT22;48483;44.640;7.494;2024-01-15T07:58:05;3.30;99.90
39957;DHT22;48483;44.640;7.494;2024-01-15T08:00:31;3.30;99.90
39957;DHT22;48483;44.640;7.494;2024-01-15T08:02:59;3.30;99.90
39957;DHT22;48483;44.640;7.494;2024-01-15T08:05:25;3.30;99.90
39957;DHT22;48483;44.640;7.494;2024-01-15T08:07:53;3.30;99.90
39957;DHT22;48483;44.640;7.494;2024-01-15T08:10:20;3.30;99.90
39957;DHT22;48483;44.640;7.494;2024-01-15T08:12:46;3.20;99.90
39957;DHT22;48483;44.640;7.494;2024-01-15T08:15:13;3.30;99.90
39957;DHT22;48483;44.640;7.494;2024-01-15T08:17:39;3.30;99.90
39957;DHT22;48483;44.640;7.494;2024-01-15T08:20:07;3.40;99.90
39957;DHT22;48483;44.640;7.494;2024-01-15T08:22:34;3.50;99.90
39957;DHT22;48483;44.640;7.494;2024-01-15T08:25:02;3.50;99.90
39957;DHT22;48483;44.640;7.494;2024-01-15T08:27:30;3.60;99.90
39957;DHT22;48483;44.640;7.494;2024-01-15T08:29:57;3.60;99.90
39957;DHT22;48483;44.640;7.494;2024-01-15T08:32:23;3.70;99.90
39957;DHT22;48483;44.640;7.494;2024-01-15T08:34:50;3.70;99.90
39957;DHT22;48483;44.640;7.494;2024-01-15T08:37:18;3.70;99.90
39957;DHT22;48483;44.640;7.494;2024-01-15T08:39:45;3.90;99.90
39957;DHT22;48483;44.640;7.494;2024-01-15T08:42:13;3.90;99.90
39957;DHT22;48483;44.640;7.494;2024-01-15T08:44:40;4.00;99.90
39957;DHT22;48483;44.640;7.494;2024-01-15T08:47:09;4.10;99.90
39957;DHT22;48483;44.640;7.494;2024-01-15T08:49:35;4.20;99.90
39957;DHT22;48483;44.640;7.494;2024-01-15T08:52:03;4.20;99.90
39957;DHT22;48483;44.640;7.494;2024-01-15T08:54:30;4.20;99.90
39957;DHT22;48483;44.640;7.494;2024-01-15T08:56:56;4.30;99.90
39957;DHT22;48483;44.640;7.494;2024-01-15T08:59:24;4.40;99.90
39957;DHT22;48483;44.640;7.494;2024-01-15T09:01:52;4.50;99.90
39957;DHT22;48483;44.640;7.494;2024-01-15T09:04:19;4.60;99.90
39957;DHT22;48483;44.640;7.494;2024-01-15T09:06:46;4.60;99.90
39957;DHT22;48483;44.640;7.494;2024-01-15T09:09:15;4.60;99.90
39957;DHT22;48483;44.640;7.494;2024-01-15T09:11:42;4.60;99.90
39957;DHT22;48483;44.640;7.494;2024-01-15T09:14:08;4.70;99.90
39957;DHT22;48483;44.640;7.494;2024-01-15T09:16:37;4.80;99.90
39957;DHT22;48483;44.640;7.494;2024-01-15T09:19:04;4.80;99.90
39957;DHT22;48483;44.640;7.494;2024-01-15T09:21:30;4.80;99.90
39957;DHT22;48483;44.640;7.494;2024-01-15T09:23:57;4.80;99.90
39957;DHT22;48483;44.640;7.494;2024-01-15T09:26:24;4.80;99.90
39957;DHT22;48483;44.640;7.494;2024-01-15T09:28:51;4.80;99.90
39957;DHT22;48483;44.640;7.494;2024-01-15T09:31:18;4.90;99.90
39957;DHT22;48483;44.640;7.494;2024-01-15T09:33:47;4.90;99.90
39957;DHT22;48483;44.640;7.494;2024-01-15T09:36:14;4.90;99.90
39957;DHT22;48483;44.640;7.494;2024-01-15T09:38:41;5.00;99.90
39957;DHT22;48483;44.640;7.494;2024-01-15T09:41:08;5.00;99.90
39957;DHT22;48483;44.640;7.494;2024-01-15T09:43:35;5.00;99.90
39957;DHT22;48483;44.640;7.494;2024-01-15T09:46:03;5.00;99.90
39957;DHT22;48483;44.640;7.494;2024-01-15T09:48:30;5.10;99.90
39957;DHT22;48483;44.640;7.494;2024-01-15T09:51:02;5.10;99.90
39957;DHT22;48483;44.640;7.494;2024-01-15T09:53:28;5.10;99.90
39957;DHT22;48483;44.640;7.494;2024-01-15T09:55:55;5.00;99.90
39957;DHT22;48483;44.640;7.494;2024-01-15T09:58:22;5.00;99.90
39957;DHT22;48483;44.640;7.494;2024-01-15T10:00:49;5.00;99.90
39957;DHT22;48483;44.640;7.494;2024-01-15T10:03:16;5.00;99.90
39957;DHT22;48483;44.640;7.494;2024-01-15T10:05:43;5.10;99.90
39957;DHT22;48483;44.640;7.494;2024-01-15T10:08:11;5.20;99.90
39957;DHT22;48483;44.640;7.494;2024-01-15T10:10:38;5.20;99.90
39957;DHT22;48483;44.640;7.494;2024-01-15T10:13:05;5.30;99.90
39957;DHT22;48483;44.640;7.494;2024-01-15T10:15:34;5.40;99.90
39957;DHT22;48483;44.640;7.494;2024-01-15T10:18:03;5.40;99.90
39957;DHT22;48483;44.640;7.494;2024-01-15T10:20:32;5.40;99.90
39957;DHT22;48483;44.640;7.494;2024-01-15T10:22:59;5.40;99.90
39957;DHT22;48483;44.640;7.494;2024-01-15T10:25:27;5.40;99.90
39957;DHT22;48483;44.640;7.494;2024-01-15T10:28:01;5.50;99.90
39957;DHT22;48483;44.640;7.494;2024-01-15T10:30:28;5.50;99.90
39957;DHT22;48483;44.640;7.494;2024-01-15T10:32:58;5.60;99.90
39957;DHT22;48483;44.640;7.494;2024-01-15T10:35:27;5.50;99.90
39957;DHT22;48483;44.640;7.494;2024-01-15T10:37:54;5.50;99.90
39957;DHT22;48483;44.640;7.494;2024-01-15T10:40:21;5.50;99.90
39957;DHT22;48483;44.640;7.494;2024-01-15T10:42:49;5.60;99.90
39957;DHT22;48483;44.640;7.494;2024-01-15T10:45:16;5.60;99.90
39957;DHT22;48483;44.640;7.494;2024-01-15T10:47:43;5.60;99.90
39957;DHT22;48483;44.640;7.494;2024-01-15T10:50:10;5.70;99.90
39957;DHT22;48483;44.640;7.494;2024-01-15T10:52:38;5.60;99.90
39957;DHT22;48483;44.640;7.494;2024-01-15T10:55:08;5.60;99.90
39957;DHT22;48483;44.640;7.494;2024-01-15T10:57:35;5.50;99.90
39957;DHT22;48483;44.640;7.494;2024-01-15T11:00:05;5.60;99.90
39957;DHT22;48483;44.640;7.494;2024-01-15T11:02:32;5.60;99.90
39957;DHT22;48483;44.640;7.494;2024-01-15T11:05:00;5.70;99.90
39957;DHT22;48483;44.640;7.494;2024-01-15T11:07:27;5.70;99.90
39957;DHT22;48483;44.640;7.494;2024-01-15T11:09:56;5.70;99.90
39957;DHT22;48483;44.640;7.494;2024-01-15T11:12:25;5.80;99.90
39957;DHT22;48483;44.640;7.494;2024-01-15T11:14:51;5.80;99.90
39957;DHT22;48483;44.640;7.494;2024-01-15T11:17:21;5.80;99.90
39957;DHT22;48483;44.640;7.494;2024-01-15T11:19:49;5.90;99.90
39957;DHT22;48483;44.640;7.494;2024-01-15T11:22:49;5.90;99.90
39957;DHT22;48483;44.640;7.494;2024-01-15T11:25:18;6.00;99.90
39957;DHT22;48483;44.640;7.494;2024-01-15T11:27:48;6.00;99.90
39957;DHT22;48483;44.640;7.494;2024-01-15T11:30:18;6.00;99.90
39957;DHT22;48483;44.640;7.494;2024-01-15T11:32:50;6.10;99.90
39957;DHT22;48483;44.640;7.494;2024-01-15T11:35:16;6.20;99.90
39957;DHT22;48483;44.640;7.494;2024-01-15T11:37:57;6.20;99.90
39957;DHT22;48483;44.640;7.494;2024-01-15T11:40:37;6.30;99.90
39957;DHT22;48483;44.640;7.494;2024-01-15T11:43:04;6.30;99.90
39957;DHT22;48483;44.640;7.494;2024-01-15T11:45:32;6.30;99.90
39957;DHT22;48483;44.640;7.494;2024-01-15T11:48:14;6.40;99.90
39957;DHT22;48483;44.640;7.494;2024-01-15T11:50:42;6.40;99.90
39957;DHT22;48483;44.640;7.494;2024-01-15T11:53:32;6.50;99.90
39957;DHT22;48483;44.640;7.494;2024-01-15T11:56:01;6.50;99.90
39957;DHT22;48483;44.640;7.494;2024-01-15T11:58:28;6.60;99.90
39957;DHT22;48483;44.640;7.494;2024-01-15T12:00:55;6.60;99.90
39957;DHT22;48483;44.640;7.494;2024-01-15T12:03:24;6.70;99.90
39957;DHT22;48483;44.640;7.494;2024-01-15T12:05:52;6.70;99.90
39957;DHT22;48483;44.640;7.494;2024-01-15T12:08:21;6.80;99.90
39957;DHT22;48483;44.640;7.494;2024-01-15T12:10:48;6.80;99.90
39957;DHT22;48483;44.640;7.494;2024-01-15T12:13:16;6.80;99.90
39957;DHT22;48483;44.640;7.494;2024-01-15T12:15:45;6.80;99.90
39957;DHT22;48483;44.640;7.494;2024-01-15T12:18:13;6.90;99.90
39957;DHT22;48483;44.640;7.494;2024-01-15T12:20:43;6.90;99.90
39957;DHT22;48483;44.640;7.494;2024-01-15T12:23:10;7.00;99.90
39957;DHT22;48483;44.640;7.494;2024-01-15T12:25:37;7.00;99.90
39957;DHT22;48483;44.640;7.494;2024-01-15T12:28:05;7.00;99.90
39957;DHT22;48483;44.640;7.494;2024-01-15T12:30:33;7.20;99.90
39957;DHT22;48483;44.640;7.494;2024-01-15T12:33:02;7.20;99.90
39957;DHT22;48483;44.640;7.494;2024-01-15T12:35:30;7.20;99.90
39957;DHT22;48483;44.640;7.494;2024-01-15T12:38:00;7.20;99.90
39957;DHT22;48483;44.640;7.494;2024-01-15T12:40:28;7.30;99.90
39957;DHT22;48483;44.640;7.494;2024-01-15T12:42:55;7.20;99.90
39957;DHT22;48483;44.640;7.494;2024-01-15T12:45:23;7.30;99.90
39957;DHT22;48483;44.640;7.494;2024-01-15T12:47:50;7.40;99.90
39957;DHT22;48483;44.640;7.494;2024-01-15T12:50:17;7.40;99.90
39957;DHT22;48483;44.640;7.494;2024-01-15T12:52:44;7.40;99.90
39957;DHT22;48483;44.640;7.494;2024-01-15T12:55:14;7.40;99.90
39957;DHT22;48483;44.640;7.494;2024-01-15T12:57:41;7.40;99.90
39957;DHT22;48483;44.640;7.494;2024-01-15T13:00:08;7.40;99.90
39957;DHT22;48483;44.640;7.494;2024-01-15T13:02:38;7.50;99.90
39957;DHT22;48483;44.640;7.494;2024-01-15T13:05:06;7.50;99.90
39957;DHT22;48483;44.640;7.494;2024-01-15T13:07:33;7.60;99.90
39957;DHT22;48483;44.640;7.494;2024-01-15T13:10:00;7.50;99.90
39957;DHT22;48483;44.640;7.494;2024-01-15T13:12:28;7.50;99.90
39957;DHT22;48483;44.640;7.494;2024-01-15T13:14:55;7.60;99.90
39957;DHT22;48483;44.640;7.494;2024-01-15T13:17:22;7.60;99.90
39957;DHT22;48483;44.640;7.494;2024-01-15T13:19:49;7.60;99.90
39957;DHT22;48483;44.640;7.494;2024-01-15T13:22:16;7.70;99.90
39957;DHT22;48483;44.640;7.494;2024-01-15T13:24:42;7.70;99.90
39957;DHT22;48483;44.640;7.494;2024-01-15T13:27:09;7.70;99.90
39957;DHT22;48483;44.640;7.494;2024-01-15T13:29:37;7.70;99.90
39957;DHT22;48483;44.640;7.494;2024-01-15T13:32:05;7.80;99.90
39957;DHT22;48483;44.640;7.494;2024-01-15T13:34:31;7.80;99.90
39957;DHT22;48483;44.640;7.494;2024-01-15T13:36:58;7.80;99.90
39957;DHT22;48483;44.640;7.494;2024-01-15T13:39:24;7.80;99.90
39957;DHT22;48483;44.640;7.494;2024-01-15T13:41:51;7.80;99.90
39957;DHT22;48483;44.640;7.494;2024-01-15T13:44:18;7.80;99.90
39957;DHT22;48483;44.640;7.494;2024-01-15T13:46:46;7.80;99.90
39957;DHT22;48483;44.640;7.494;2024-01-15T13:49:13;7.80;99.90
39957;DHT22;48483;44.640;7.494;2024-01-15T13:51:40;7.80;99.90
39957;DHT22;48483;44.640;7.494;2024-01-15T13:54:07;7.80;99.90
39957;DHT22;48483;44.640;7.494;2024-01-15T13:56:34;7.90;99.90
39957;DHT22;48483;44.640;7.494;2024-01-15T13:59:01;7.90;99.90
39957;DHT22;48483;44.640;7.494;2024-01-15T14:01:30;7.80;99.90
39957;DHT22;48483;44.640;7.494;2024-01-15T14:04:00;7.90;99.90
39957;DHT22;48483;44.640;7.494;2024-01-15T14:06:27;7.90;99.90
39957;DHT22;48483;44.640;7.494;2024-01-15T14:08:53;7.90;99.90
39957;DHT22;48483;44.640;7.494;2024-01-15T14:11:20;7.90;99.90
39957;DHT22;48483;44.640;7.494;2024-01-15T14:13:46;8.00;99.90
39957;DHT22;48483;44.640;7.494;2024-01-15T14:16:13;7.90;99.90
39957;DHT22;48483;44.640;7.494;2024-01-15T14:18:40;7.90;99.90
39957;DHT22;48483;44.640;7.494;2024-01-15T14:21:08;7.90;99.90
39957;DHT22;48483;44.640;7.494;2024-01-15T14:23:35;7.90;99.90
39957;DHT22;48483;44.640;7.494;2024-01-15T14:26:02;7.90;99.90
39957;DHT22;48483;44.640;7.494;2024-01-15T14:28:29;7.90;99.90
39957;DHT22;48483;44.640;7.494;2024-01-15T14:30:55;7.90;99.90
39957;DHT22;48483;44.640;7.494;2024-01-15T14:33:24;7.90;99.90
39957;DHT22;48483;44.640;7.494;2024-01-15T14:35:51;7.80;99.90
39957;DHT22;48483;44.640;7.494;2024-01-15T14:38:19;7.80;99.90
39957;DHT22;48483;44.640;7.494;2024-01-15T14:40:45;7.80;99.90
39957;DHT22;48483;44.640;7.494;2024-01-15T14:43:12;7.70;99.90
39957;DHT22;48483;44.640;7.494;2024-01-15T14:45:39;7.70;99.90
39957;DHT22;48483;44.640;7.494;2024-01-15T14:48:06;7.70;99.90
39957;DHT22;48483;44.640;7.494;2024-01-15T14:50:32;7.70;99.90
39957;DHT22;48483;44.640;7.494;2024-01-15T14:52:59;7.70;99.90
39957;DHT22;48483;44.640;7.494;2024-01-15T14:55:27;7.60;99.90
39957;DHT22;48483;44.640;7.494;2024-01-15T14:57:54;7.60;99.90
39957;DHT22;48483;44.640;7.494;2024-01-15T15:00:21;7.60;99.90
39957;DHT22;48483;44.640;7.494;2024-01-15T15:02:49;7.70;99.90
39957;DHT22;48483;44.640;7.494;2024-01-15T15:05:15;7.60;99.90
39957;DHT22;48483;44.640;7.494;2024-01-15T15:07:43;7.60;99.90
39957;DHT22;48483;44.640;7.494;2024-01-15T15:10:10;7.60;99.90
39957;DHT22;48483;44.640;7.494;2024-01-15T15:12:38;7.70;99.90
39957;DHT22;48483;44.640;7.494;2024-01-15T15:15:06;7.70;99.90
39957;DHT22;48483;44.640;7.494;2024-01-15T15:17:33;7.60;99.90
39957;DHT22;48483;44.640;7.494;2024-01-15T15:20:01;7.60;99.90
39957;DHT22;48483;44.640;7.494;2024-01-15T15:22:29;7.50;99.90
39957;DHT22;48483;44.640;7.494;2024-01-15T15:24:55;7.50;99.90
39957;DHT22;48483;44.640;7.494;2024-01-15T15:27:22;7.50;99.90
39957;DHT22;48483;44.640;7.494;2024-01-15T15:29:50;7.40;99.90
39957;DHT22;48483;44.640;7.494;2024-01-15T15:32:17;7.40;99.90
39957;DHT22;48483;44.640;7.494;2024-01-15T15:34:43;7.40;99.90
39957;DHT22;48483;44.640;7.494;2024-01-15T15:37:10;7.40;99.90
39957;DHT22;48483;44.640;7.494;2024-01-15T15:39:37;7.40;99.90
39957;DHT22;48483;44.640;7.494;2024-01-15T15:42:04;7.40;99.90
39957;DHT22;48483;44.640;7.494;2024-01-15T15:44:31;7.40;99.90